GONS CYXU-CYXU
Flight info
| Callsign | GONS |
|---|---|
| Flight time | 0h 2m |
| Altitude | |
| Route | |
| Aircraft | C152 |
Departure
| Time | 2026-05-05 00:49 |
|---|---|
| Airport | London International Airport (CYXU) |
Arrival
| Time | 2026-05-05 00:51 |
|---|---|
| Airport | London International Airport (CYXU) |
| Time | Latitude | Longitude | Altitude | Speed | Heading |
|---|---|---|---|---|---|
| 2026-05-05 00:42 | 43.02985 | -81.14974 | 897 ft | 0 kts | 225° |
| 2026-05-05 00:43 | 43.02990 | -81.14954 | 897 ft | 6 kts | 19° |
| 2026-05-05 00:43 | 43.03048 | -81.14930 | 896 ft | 12 kts | 2° |
| 2026-05-05 00:44 | 43.03122 | -81.14992 | 897 ft | 14 kts | 317° |
| 2026-05-05 00:44 | 43.03207 | -81.15098 | 898 ft | 19 kts | 317° |
| 2026-05-05 00:44 | 43.03307 | -81.15215 | 901 ft | 19 kts | 317° |
| 2026-05-05 00:44 | 43.03408 | -81.15334 | 901 ft | 19 kts | 320° |
| 2026-05-05 00:45 | 43.03506 | -81.15466 | 900 ft | 21 kts | 307° |
| 2026-05-05 00:45 | 43.03624 | -81.15597 | 898 ft | 22 kts | 321° |
| 2026-05-05 00:45 | 43.03742 | -81.15739 | 898 ft | 24 kts | 320° |
| 2026-05-05 00:45 | 43.03872 | -81.15889 | 900 ft | 25 kts | 310° |
| 2026-05-05 00:46 | 43.03990 | -81.16018 | 903 ft | 14 kts | 347° |
| 2026-05-05 00:46 | 43.04042 | -81.16015 | 906 ft | 0 kts | 6° |
| 2026-05-05 00:46 | 43.04074 | -81.16009 | 907 ft | 13 kts | 10° |
| 2026-05-05 00:47 | 43.04137 | -81.15925 | 907 ft | 13 kts | 87° |
| 2026-05-05 00:47 | 43.04008 | -81.15741 | 903 ft | 46 kts | 140° |
| 2026-05-05 00:47 | 43.03722 | -81.15382 | 940 ft | 60 kts | 146° |
| 2026-05-05 00:47 | 43.03395 | -81.14981 | 1001 ft | 65 kts | 148° |
| 2026-05-05 00:48 | 43.03039 | -81.14577 | 1078 ft | 68 kts | 150° |
| 2026-05-05 00:48 | 43.02679 | -81.14159 | 1170 ft | 69 kts | 151° |
| 2026-05-05 00:48 | 43.02286 | -81.13810 | 1320 ft | 61 kts | 157° |
| 2026-05-05 00:48 | 43.01968 | -81.13395 | 1436 ft | 75 kts | 125° |
| 2026-05-05 00:49 | 43.02059 | -81.12616 | 1526 ft | 94 kts | 59° |
| 2026-05-05 00:49 | 43.02469 | -81.11890 | 1629 ft | 96 kts | 58° |
| 2026-05-05 00:49 | 43.03062 | -81.11676 | 1746 ft | 91 kts | 331° |
| 2026-05-05 00:49 | 43.03694 | -81.11851 | 1861 ft | 90 kts | 321° |
| 2026-05-05 00:50 | 43.04243 | -81.12166 | 1907 ft | 84 kts | 295° |
| 2026-05-05 00:50 | 43.04681 | -81.12675 | 1931 ft | 84 kts | 289° |
| 2026-05-05 00:50 | 43.05131 | -81.13191 | 1957 ft | 82 kts | 287° |
| 2026-05-05 00:50 | 43.05568 | -81.13720 | 1942 ft | 85 kts | 292° |
| 2026-05-05 00:51 | 43.06002 | -81.14245 | 1919 ft | 79 kts | 288° |
| 2026-05-05 00:51 | 43.06168 | -81.14639 | 1861 ft | 28 kts | 220° |
| 2026-05-05 00:51 | 43.05995 | -81.14904 | 1691 ft | 44 kts | 227° |
| 2026-05-05 00:51 | 43.05793 | -81.15222 | 1596 ft | 44 kts | 221° |
| 2026-05-05 00:52 | 43.05592 | -81.15546 | 1551 ft | 45 kts | 219° |
| 2026-05-05 00:52 | 43.05368 | -81.15865 | 1481 ft | 49 kts | 222° |
| 2026-05-05 00:52 | 43.05161 | -81.16236 | 1411 ft | 48 kts | 217° |
| 2026-05-05 00:52 | 43.04921 | -81.16553 | 1320 ft | 43 kts | 199° |
| 2026-05-05 00:53 | 43.04613 | -81.16428 | 1138 ft | 55 kts | 149° |
| 2026-05-05 00:53 | 43.04316 | -81.16100 | 963 ft | 55 kts | 148° |
| 2026-05-05 00:53 | 43.04071 | -81.15815 | 904 ft | 35 kts | 143° |
| 2026-05-05 00:53 | 43.04017 | -81.15753 | 903 ft | 3 kts | 140° |
| 2026-05-05 00:54 | 43.03888 | -81.15598 | 899 ft | 45 kts | 139° |
| 2026-05-05 00:54 | 43.03612 | -81.15251 | 950 ft | 58 kts | 148° |
| 2026-05-05 00:54 | 43.03299 | -81.14868 | 1027 ft | 62 kts | 145° |
| 2026-05-05 00:54 | 43.02987 | -81.14474 | 1154 ft | 59 kts | 147° |
| 2026-05-05 00:55 | 43.02697 | -81.14083 | 1265 ft | 57 kts | 147° |
| 2026-05-05 00:55 | 43.02422 | -81.13724 | 1382 ft | 54 kts | 160° |
| 2026-05-05 00:55 | 43.02115 | -81.13395 | 1481 ft | 57 kts | 158° |
| 2026-05-05 00:55 | 43.01909 | -81.12869 | 1577 ft | 82 kts | 96° |
| 2026-05-05 00:56 | 43.02232 | -81.12200 | 1705 ft | 91 kts | 58° |
| 2026-05-05 00:56 | 43.02761 | -81.11760 | 1776 ft | 95 kts | 1° |
| 2026-05-05 00:56 | 43.03385 | -81.11777 | 1847 ft | 90 kts | 333° |
| 2026-05-05 00:56 | 43.03966 | -81.11947 | 1908 ft | 82 kts | 296° |
| 2026-05-05 00:57 | 43.04474 | -81.12368 | 1960 ft | 89 kts | 298° |
| 2026-05-05 00:57 | 43.04973 | -81.12836 | 1999 ft | 86 kts | 291° |
| 2026-05-05 00:57 | 43.05419 | -81.13389 | 2000 ft | 86 kts | 285° |
| 2026-05-05 00:57 | 43.05804 | -81.14004 | 1963 ft | 82 kts | 280° |
| 2026-05-05 00:58 | 43.06135 | -81.14527 | 1974 ft | 62 kts | 275° |
| 2026-05-05 00:58 | 43.06212 | -81.14882 | 1814 ft | 31 kts | 228° |
| 2026-05-05 00:58 | 43.06066 | -81.15177 | 1632 ft | 43 kts | 225° |
| 2026-05-05 00:58 | 43.05883 | -81.15540 | 1533 ft | 49 kts | 225° |
| 2026-05-05 00:59 | 43.05659 | -81.15896 | 1487 ft | 48 kts | 220° |
| 2026-05-05 00:59 | 43.05431 | -81.16167 | 1427 ft | 45 kts | 214° |
| 2026-05-05 00:59 | 43.05198 | -81.16487 | 1333 ft | 47 kts | 210° |
| 2026-05-05 00:59 | 43.04898 | -81.16594 | 1251 ft | 49 kts | 174° |
| 2026-05-05 01:00 | 43.04558 | -81.16388 | 1100 ft | 56 kts | 148° |
| 2026-05-05 01:00 | 43.04269 | -81.16049 | 947 ft | 52 kts | 149° |
| 2026-05-05 01:00 | 43.04050 | -81.15792 | 903 ft | 29 kts | 144° |
| 2026-05-05 01:00 | 43.03955 | -81.15682 | 902 ft | 1 kts | 143° |
| 2026-05-05 01:01 | 43.03920 | -81.15677 | 901 ft | 6 kts | 210° |
| 2026-05-05 01:01 | 43.03890 | -81.15748 | 901 ft | 14 kts | 250° |
| 2026-05-05 01:01 | 43.03837 | -81.15846 | 899 ft | 11 kts | 172° |
| 2026-05-05 01:01 | 43.03787 | -81.15796 | 898 ft | 9 kts | 135° |
| 2026-05-05 01:02 | 43.03731 | -81.15734 | 898 ft | 9 kts | 173° |
| 2026-05-05 01:02 | 43.03701 | -81.15765 | 898 ft | 8 kts | 253° |
| 2026-05-05 01:02 | 43.03682 | -81.15888 | 900 ft | 16 kts | 259° |
| 2026-05-05 01:02 | 43.03646 | -81.16039 | 901 ft | 17 kts | 253° |
| 2026-05-05 01:03 | 43.03617 | -81.16181 | 903 ft | 11 kts | 207° |
| 2026-05-05 01:03 | 43.03588 | -81.16229 | 904 ft | 4 kts | 253° |